createdAt,value
2018-08-28T00:02:11.431Z,101385.88
2018-08-28T00:04:40.601Z,101384.95
2018-08-28T00:07:09.891Z,101387.57
2018-08-28T00:09:39.069Z,101388.95
2018-08-28T00:12:08.448Z,101388.63
2018-08-28T00:14:37.672Z,101392.15
2018-08-28T00:17:07.043Z,101390.84
2018-08-28T00:19:36.340Z,101392.59
2018-08-28T00:22:05.596Z,101392.75
2018-08-28T00:24:34.730Z,101392.75
2018-08-28T00:27:03.907Z,101392.75
2018-08-28T00:29:33.064Z,101401.56
2018-08-28T00:32:02.269Z,101398.52
2018-08-28T00:34:31.558Z,101402.42
2018-08-28T00:37:00.766Z,101402.38
2018-08-28T00:39:29.903Z,101409.81
2018-08-28T00:41:59.049Z,101399.31
2018-08-28T00:44:28.204Z,101405.95
2018-08-28T00:46:57.327Z,101409.55
2018-08-28T00:49:26.598Z,101407.19
2018-08-28T00:51:55.755Z,101408.31
2018-08-28T00:54:24.947Z,101412.14
2018-08-28T00:56:54.048Z,101416.91
2018-08-28T00:59:23.215Z,101415.92
2018-08-28T01:01:52.415Z,101421.62
2018-08-28T01:04:21.682Z,101420.31
2018-08-28T01:06:50.933Z,101415.06
2018-08-28T01:09:20.239Z,101418.52
2018-08-28T01:11:49.353Z,101408.91
2018-08-28T01:14:18.509Z,101406.36
2018-08-28T01:16:47.625Z,101412.40
2018-08-28T01:19:16.734Z,101413.71
2018-08-28T01:21:45.905Z,101419.48
2018-08-28T01:24:15.093Z,101409.44
2018-08-28T01:26:44.206Z,101410.30
2018-08-28T01:29:13.319Z,101413.83
2018-08-28T01:31:42.626Z,101415.66
2018-08-28T01:34:11.807Z,101420.91
2018-08-28T01:36:41.283Z,101418.36
2018-08-28T01:39:10.511Z,101417.16
2018-08-28T01:41:39.641Z,101419.45
2018-08-28T01:44:08.762Z,101419.48
2018-08-28T01:46:38.024Z,101412.52
2018-08-28T01:49:07.334Z,101411.27
2018-08-28T01:51:36.558Z,101414.34
2018-08-28T01:54:05.710Z,101416.25
2018-08-28T01:56:34.849Z,101421.50
2018-08-28T01:59:03.996Z,101417.68
2018-08-28T02:01:33.180Z,101419.38
2018-08-28T02:04:02.295Z,101423.83
2018-08-28T02:06:31.414Z,101426.53
2018-08-28T02:09:00.600Z,101421.91
2018-08-28T02:11:29.766Z,101421.91
2018-08-28T02:13:58.995Z,101422.84
2018-08-28T02:16:28.125Z,101425.91
2018-08-28T02:18:57.253Z,101427.30
2018-08-28T02:21:26.476Z,101427.92
2018-08-28T02:23:55.644Z,101428.48
2018-08-28T02:26:24.875Z,101424.63
2018-08-28T02:28:54.027Z,101420.00
2018-08-28T02:31:23.150Z,101427.19
2018-08-28T02:33:52.267Z,101426.84
2018-08-28T02:36:21.454Z,101427.50
2018-08-28T02:38:50.588Z,101427.61
2018-08-28T02:41:19.771Z,101424.26
2018-08-28T02:43:48.956Z,101424.09
2018-08-28T02:46:18.076Z,101424.19
2018-08-28T02:48:47.207Z,101424.36
2018-08-28T02:51:16.335Z,101424.47
2018-08-28T02:53:45.439Z,101421.66
2018-08-28T02:56:14.670Z,101422.31
2018-08-28T02:58:43.734Z,101427.25
2018-08-28T03:01:12.931Z,101424.34
2018-08-28T03:03:42.032Z,101424.16
2018-08-28T03:06:11.292Z,101429.18
2018-08-28T03:08:40.407Z,101436.19
2018-08-28T03:11:09.664Z,101428.39
2018-08-28T03:13:38.798Z,101434.72
2018-08-28T03:16:08.001Z,101433.44
2018-08-28T03:18:37.119Z,101425.23
2018-08-28T03:21:06.242Z,101425.20
2018-08-28T03:23:35.407Z,101426.95
2018-08-28T03:26:04.560Z,101433.95
2018-08-28T03:28:33.850Z,101433.66
2018-08-28T03:31:02.967Z,101433.41
2018-08-28T03:33:32.161Z,101437.91
2018-08-28T03:36:01.349Z,101434.94
2018-08-28T03:38:30.505Z,101438.61
2018-08-28T03:40:59.703Z,101440.78
2018-08-28T03:43:28.898Z,101447.91
2018-08-28T03:45:58.030Z,101443.65
2018-08-28T03:48:27.226Z,101449.39
2018-08-28T03:50:56.334Z,101457.47
2018-08-28T03:53:25.520Z,101455.89
2018-08-28T03:55:54.715Z,101452.98
2018-08-28T03:58:23.842Z,101459.17
2018-08-28T04:00:52.971Z,101454.50
2018-08-28T04:03:22.121Z,101462.20
2018-08-28T04:05:51.370Z,101459.52
2018-08-28T04:08:20.515Z,101463.58
2018-08-28T04:10:49.661Z,101462.59
2018-08-28T04:13:18.767Z,101462.86
2018-08-28T04:15:47.979Z,101460.83
2018-08-28T04:18:17.175Z,101456.91
2018-08-28T04:20:46.439Z,101456.05
2018-08-28T04:23:15.594Z,101455.89
2018-08-28T04:25:44.858Z,101458.36
2018-08-28T04:28:14.053Z,101455.45
2018-08-28T04:30:43.333Z,101464.34
2018-08-28T04:33:12.449Z,101469.73
2018-08-28T04:35:41.654Z,101472.31
2018-08-28T04:38:10.803Z,101468.69
2018-08-28T04:40:39.977Z,101464.97
2018-08-28T04:43:09.123Z,101470.14
2018-08-28T04:45:38.248Z,101465.84
2018-08-28T04:48:07.409Z,101471.45
2018-08-28T04:50:36.568Z,101482.38
2018-08-28T04:53:05.774Z,101485.14
2018-08-28T04:55:35.006Z,101480.53
2018-08-28T04:58:04.252Z,101482.44
2018-08-28T05:00:33.551Z,101485.47
2018-08-28T05:03:02.711Z,101481.92
2018-08-28T05:05:31.919Z,101486.12
2018-08-28T05:08:01.078Z,101486.41
2018-08-28T05:10:30.942Z,101485.75
2018-08-28T05:13:00.069Z,101494.03
2018-08-28T05:15:29.197Z,101493.02
2018-08-28T05:17:58.383Z,101498.52
2018-08-28T05:20:27.549Z,101497.85
2018-08-28T05:22:56.654Z,101499.71
2018-08-28T05:25:25.894Z,101499.65
2018-08-28T05:27:55.075Z,101499.43
2018-08-28T05:30:24.559Z,101503.74
2018-08-28T05:32:53.632Z,101506.84
2018-08-28T05:35:22.747Z,101502.93
2018-08-28T05:37:51.961Z,101508.50
2018-08-28T05:40:21.176Z,101513.20
2018-08-28T05:42:50.372Z,101509.55
2018-08-28T05:45:19.663Z,101511.37
2018-08-28T05:47:48.783Z,101510.34
2018-08-28T05:50:17.958Z,101512.55
2018-08-28T05:52:47.206Z,101512.36
2018-08-28T05:55:16.358Z,101516.31
2018-08-28T05:57:45.563Z,101515.39
2018-08-28T06:00:15.155Z,101521.03
2018-08-28T06:02:44.446Z,101521.73
2018-08-28T06:05:13.612Z,101522.73
2018-08-28T06:07:42.770Z,101526.97
2018-08-28T06:10:11.907Z,101523.11
2018-08-28T06:12:41.059Z,101526.70
2018-08-28T06:15:11.778Z,101522.73
2018-08-28T06:17:40.991Z,101529.97
2018-08-28T06:20:10.116Z,101526.52
2018-08-28T06:22:39.291Z,101528.48
2018-08-28T06:25:08.439Z,101543.16
2018-08-28T06:27:37.567Z,101543.19
2018-08-28T06:30:07.437Z,101545.16
2018-08-28T06:32:36.655Z,101544.36
2018-08-28T06:35:06.460Z,101539.61
2018-08-28T06:37:35.628Z,101539.14
2018-08-28T06:40:04.897Z,101546.81
2018-08-28T06:42:34.058Z,101546.66
2018-08-28T06:45:03.202Z,101544.13
2018-08-28T06:47:32.490Z,101548.96
2018-08-28T06:50:01.750Z,101549.72
2018-08-28T06:52:30.939Z,101552.73
2018-08-28T06:55:00.080Z,101551.76
2018-08-28T06:57:29.318Z,101554.30
2018-08-28T06:59:58.771Z,101556.15
2018-08-28T07:02:28.046Z,101552.46
2018-08-28T07:04:57.287Z,101560.39
2018-08-28T07:07:26.542Z,101552.95
2018-08-28T07:09:55.731Z,101550.74
2018-08-28T07:12:24.985Z,101555.45
2018-08-28T07:14:54.158Z,101561.61
2018-08-28T07:17:23.338Z,101557.08
2018-08-28T07:19:52.477Z,101556.48
2018-08-28T07:22:21.719Z,101553.00
2018-08-28T07:24:50.908Z,101559.19
2018-08-28T07:27:20.011Z,101557.25
2018-08-28T07:29:49.131Z,101558.17
2018-08-28T07:32:18.356Z,101565.16
2018-08-28T07:34:47.510Z,101564.06
2018-08-28T07:37:16.673Z,101564.59
2018-08-28T07:39:45.843Z,101562.73
2018-08-28T07:42:14.977Z,101565.36
2018-08-28T07:44:44.093Z,101564.04
2018-08-28T07:47:13.293Z,101562.98
2018-08-28T07:49:42.472Z,101563.22
2018-08-28T07:52:11.755Z,101562.98
2018-08-28T07:54:41.222Z,101564.11
2018-08-28T07:57:10.355Z,101561.72
2018-08-28T07:59:39.479Z,101565.73
2018-08-28T08:02:08.703Z,101569.30
2018-08-28T08:04:37.875Z,101563.19
2018-08-28T08:07:07.423Z,101569.75
2018-08-28T08:09:36.594Z,101573.30
2018-08-28T08:12:05.787Z,101575.91
2018-08-28T08:14:34.895Z,101579.27
2018-08-28T08:17:04.081Z,101579.57
2018-08-28T08:19:33.240Z,101583.20
2018-08-28T08:22:02.437Z,101577.78
2018-08-28T08:24:31.593Z,101583.96
2018-08-28T08:27:01.080Z,101576.22
2018-08-28T08:29:30.375Z,101585.14
2018-08-28T08:31:59.691Z,101579.02
2018-08-28T08:34:28.837Z,101581.45
2018-08-28T08:36:58.029Z,101585.70
2018-08-28T08:39:27.243Z,101574.98
2018-08-28T08:41:56.409Z,101575.85
2018-08-28T08:44:25.612Z,101569.69
2018-08-28T08:46:54.828Z,101561.41
2018-08-28T08:49:24.064Z,101566.77
2018-08-28T08:51:53.284Z,101569.09
2018-08-28T08:54:22.492Z,101572.43
2018-08-28T08:56:51.767Z,101570.42
2018-08-28T08:59:20.983Z,101571.82
2018-08-28T09:01:50.206Z,101562.09
2018-08-28T09:04:19.402Z,101563.58
2018-08-28T09:06:48.570Z,101565.48
2018-08-28T09:09:17.691Z,101562.33
2018-08-28T09:11:46.878Z,101568.66
2018-08-28T09:14:16.060Z,101568.31
2018-08-28T09:16:45.303Z,101562.92
2018-08-28T09:19:14.527Z,101561.30
2018-08-28T09:21:43.702Z,101558.98
2018-08-28T09:24:13.001Z,101562.25
2018-08-28T09:26:42.158Z,101547.35
2018-08-28T09:29:11.255Z,101546.46
2018-08-28T09:31:40.493Z,101539.37
2018-08-28T09:34:09.631Z,101536.91
2018-08-28T09:36:38.756Z,101537.59
2018-08-28T09:39:08.198Z,101534.98
2018-08-28T09:41:37.704Z,101531.94
2018-08-28T09:44:07.092Z,101534.39
2018-08-28T09:49:17.377Z,101533.77
2018-08-28T09:51:46.506Z,101530.62
2018-08-28T09:54:18.551Z,101536.14
2018-08-28T09:56:47.707Z,101533.13
2018-08-28T09:59:16.927Z,101532.11
2018-08-28T10:01:47.156Z,101530.73
2018-08-28T10:04:17.262Z,101536.13
2018-08-28T10:06:46.634Z,101526.48
2018-08-28T10:09:17.203Z,101524.07
2018-08-28T10:11:46.594Z,101522.75
2018-08-28T10:14:15.755Z,101513.85
2018-08-28T10:16:44.874Z,101513.76
2018-08-28T10:19:14.001Z,101512.42
2018-08-28T10:21:43.547Z,101512.11
2018-08-28T10:24:12.698Z,101517.23
2018-08-28T10:26:41.805Z,101514.55
2018-08-28T10:29:10.926Z,101508.94
2018-08-28T10:31:40.060Z,101504.41
2018-08-28T10:34:09.183Z,101501.22
2018-08-28T10:36:38.310Z,101502.59
2018-08-28T10:39:09.184Z,101501.18
2018-08-28T10:41:38.305Z,101505.16
2018-08-28T10:44:07.539Z,101499.20
2018-08-28T10:46:36.945Z,101495.30
2018-08-28T10:49:06.243Z,101500.64
2018-08-28T10:51:35.367Z,101498.29
2018-08-28T10:54:04.518Z,101495.34
2018-08-28T10:56:33.622Z,101495.97
2018-08-28T10:59:02.805Z,101492.01
2018-08-28T11:01:31.943Z,101495.47
2018-08-28T11:04:07.691Z,101496.89
2018-08-28T11:06:37.015Z,101491.70
2018-08-28T11:09:06.723Z,101499.18
2018-08-28T11:11:35.889Z,101496.17
2018-08-28T11:14:05.115Z,101491.05
2018-08-28T11:16:34.255Z,101489.25
2018-08-28T11:19:03.560Z,101493.89
2018-08-28T11:21:32.688Z,101484.46
2018-08-28T11:24:01.853Z,101482.88
2018-08-28T11:26:30.963Z,101479.00
2018-08-28T11:29:00.204Z,101477.59
2018-08-28T11:31:29.485Z,101478.13
2018-08-28T11:33:58.494Z,101481.21
2018-08-28T11:36:27.703Z,101484.98
2018-08-28T11:38:56.858Z,101475.75
2018-08-28T11:41:26.067Z,101466.20
2018-08-28T11:43:55.467Z,101470.52
2018-08-28T11:46:24.662Z,101472.70
2018-08-28T11:48:53.864Z,101472.16
2018-08-28T11:51:23.077Z,101466.72
2018-08-28T11:53:52.231Z,101469.81
2018-08-28T11:56:21.369Z,101469.14
2018-08-28T11:58:50.582Z,101477.44
2018-08-28T12:01:19.820Z,101468.69
2018-08-28T12:03:48.967Z,101470.74
2018-08-28T12:06:18.421Z,101474.88
2018-08-28T12:08:47.590Z,101468.20
2018-08-28T12:11:16.806Z,101468.05
2018-08-28T12:13:46.254Z,101472.55
2018-08-28T12:16:15.537Z,101465.55
2018-08-28T12:18:44.665Z,101456.50
2018-08-28T12:21:15.441Z,101461.61
2018-08-28T12:23:44.561Z,101465.46
2018-08-28T12:26:13.691Z,101464.07
2018-08-28T12:28:43.201Z,101452.09
2018-08-28T12:31:15.756Z,101460.16
2018-08-28T12:33:46.266Z,101458.80
2018-08-28T12:36:17.920Z,101450.93
2018-08-28T12:38:48.733Z,101446.41
2018-08-28T12:41:19.309Z,101440.30
2018-08-28T12:43:48.679Z,101440.10
2018-08-28T12:46:18.696Z,101434.00
2018-08-28T12:48:47.975Z,101432.27
2018-08-28T12:51:17.208Z,101436.59
2018-08-28T12:53:46.288Z,101425.44
2018-08-28T12:56:15.435Z,101423.67
2018-08-28T12:58:44.608Z,101415.83
2018-08-28T13:01:13.758Z,101403.30
2018-08-28T13:03:43.000Z,101412.98
2018-08-28T13:06:12.175Z,101413.89
2018-08-28T13:08:41.310Z,101399.73
2018-08-28T13:11:10.491Z,101401.06
2018-08-28T13:13:39.591Z,101394.11
2018-08-28T13:16:08.793Z,101394.81
2018-08-28T13:18:37.898Z,101394.06
2018-08-28T13:21:07.063Z,101391.39
2018-08-28T13:23:36.188Z,101402.97
2018-08-28T13:26:05.537Z,101395.72
2018-08-28T13:28:34.559Z,101392.23
2018-08-28T13:31:03.706Z,101384.95
2018-08-28T13:33:32.884Z,101380.25
2018-08-28T13:36:02.103Z,101369.59
2018-08-28T13:38:31.264Z,101372.57
2018-08-28T13:41:00.412Z,101365.06
2018-08-28T13:43:29.524Z,101357.70
2018-08-28T13:45:58.623Z,101359.69
2018-08-28T13:48:27.939Z,101363.36
2018-08-28T13:50:57.085Z,101360.52
2018-08-28T13:53:26.209Z,101353.56
2018-08-28T13:55:55.404Z,101356.50
2018-08-28T13:58:24.525Z,101362.66
2018-08-28T14:00:53.680Z,101355.45
2018-08-28T14:03:22.847Z,101351.55
2018-08-28T14:05:52.045Z,101348.23
2018-08-28T14:08:21.159Z,101359.00
2018-08-28T14:10:50.287Z,101350.80
2018-08-28T14:13:19.524Z,101354.02
2018-08-28T14:15:48.560Z,101360.32
2018-08-28T14:18:17.751Z,101353.28
2018-08-28T14:20:46.966Z,101340.11
2018-08-28T14:23:16.088Z,101343.09
2018-08-28T14:25:45.267Z,101339.17
2018-08-28T14:28:14.378Z,101335.39
2018-08-28T14:30:43.503Z,101333.52
2018-08-28T14:33:12.656Z,101332.37
2018-08-28T14:35:42.015Z,101331.70
2018-08-28T14:38:10.959Z,101331.25
2018-08-28T14:40:40.114Z,101330.99
2018-08-28T14:43:09.235Z,101322.90
2018-08-28T14:45:38.411Z,101324.81
2018-08-28T14:48:07.571Z,101315.97
2018-08-28T14:50:36.792Z,101319.00
2018-08-28T14:53:05.889Z,101310.74
2018-08-28T14:55:35.094Z,101304.05
2018-08-28T14:58:04.277Z,101311.80
2018-08-28T15:00:33.593Z,101312.08
2018-08-28T15:03:02.836Z,101312.47
2018-08-28T15:05:31.968Z,101304.56
2018-08-28T15:08:01.121Z,101305.08
2018-08-28T15:10:30.283Z,101303.38
2018-08-28T15:12:59.394Z,101295.75
2018-08-28T15:15:28.560Z,101299.75
2018-08-28T15:17:57.742Z,101292.51
2018-08-28T15:20:26.883Z,101285.69
2018-08-28T15:22:56.067Z,101289.31
2018-08-28T15:25:25.233Z,101295.27
2018-08-28T15:27:54.592Z,101288.86
2018-08-28T15:30:24.213Z,101287.59
2018-08-28T15:32:53.368Z,101282.80
2018-08-28T15:35:22.491Z,101287.30
2018-08-28T15:37:51.904Z,101280.00
2018-08-28T15:40:21.422Z,101279.30
2018-08-28T15:42:50.563Z,101279.75
2018-08-28T15:45:20.207Z,101276.72
2018-08-28T15:47:49.322Z,101275.89
2018-08-28T15:50:18.505Z,101277.30
2018-08-28T15:52:47.851Z,101277.47
2018-08-28T15:55:17.123Z,101271.66
2018-08-28T15:57:46.308Z,101268.86
2018-08-28T16:00:15.632Z,101264.64
2018-08-28T16:02:44.802Z,101261.84
2018-08-28T16:05:14.131Z,101269.62
2018-08-28T16:07:43.347Z,101270.58
2018-08-28T16:10:12.455Z,101265.71
2018-08-28T16:12:41.649Z,101260.17
2018-08-28T16:15:11.501Z,101257.16
2018-08-28T16:17:40.652Z,101255.35
2018-08-28T16:20:09.836Z,101259.69
2018-08-28T16:22:50.611Z,101255.55
2018-08-28T16:25:19.746Z,101253.75
2018-08-28T16:27:49.225Z,101251.53
2018-08-28T16:30:19.157Z,101250.55
2018-08-28T16:32:48.451Z,101241.09
2018-08-28T16:35:17.679Z,101237.52
2018-08-28T16:37:47.126Z,101235.11
2018-08-28T16:40:23.063Z,101223.37
2018-08-28T16:42:52.316Z,101217.42
2018-08-28T16:45:22.125Z,101220.68
2018-08-28T16:47:51.316Z,101217.17
2018-08-28T16:50:20.730Z,101215.23
2018-08-28T16:52:49.924Z,101212.98
2018-08-28T16:55:19.142Z,101212.13
2018-08-28T16:57:48.379Z,101208.75
2018-08-28T17:00:19.102Z,101202.10
2018-08-28T17:02:48.366Z,101201.80
2018-08-28T17:05:17.532Z,101202.36
2018-08-28T17:07:46.760Z,101196.28
2018-08-28T17:10:15.887Z,101191.22
2018-08-28T17:12:45.162Z,101189.73
2018-08-28T17:15:14.790Z,101188.40
2018-08-28T17:17:44.074Z,101185.27
2018-08-28T17:20:13.210Z,101185.35
2018-08-28T17:22:42.351Z,101178.80
2018-08-28T17:25:11.770Z,101179.39
2018-08-28T17:27:40.981Z,101176.35
2018-08-28T17:32:38.648Z,101172.84
2018-08-28T17:35:08.712Z,101177.04
2018-08-28T17:37:38.076Z,101175.44
2018-08-28T17:40:07.219Z,101172.79
2018-08-28T17:42:36.472Z,101173.14
2018-08-28T17:45:05.704Z,101172.63
2018-08-28T17:47:34.963Z,101174.92
2018-08-28T17:50:04.158Z,101178.98
2018-08-28T17:52:33.323Z,101173.19
2018-08-28T17:55:02.467Z,101178.48
2018-08-28T17:57:31.728Z,101176.96
2018-08-28T18:00:00.968Z,101175.38
2018-08-28T18:02:30.054Z,101179.89
2018-08-28T18:04:59.263Z,101174.83
2018-08-28T18:07:28.449Z,101176.83
2018-08-28T18:09:57.600Z,101175.03
2018-08-28T18:12:26.747Z,101176.06
2018-08-28T18:14:55.892Z,101174.20
2018-08-28T18:17:25.068Z,101171.77
2018-08-28T18:19:54.288Z,101172.20
2018-08-28T18:22:23.618Z,101173.65
2018-08-28T18:24:52.792Z,101164.75
2018-08-28T18:27:22.055Z,101165.92
2018-08-28T18:29:51.225Z,101165.58
2018-08-28T18:32:20.441Z,101165.05
2018-08-28T18:34:49.564Z,101163.33
2018-08-28T18:37:18.893Z,101168.74
2018-08-28T18:39:47.999Z,101168.47
2018-08-28T18:42:17.164Z,101168.33
2018-08-28T18:44:46.406Z,101165.77
2018-08-28T18:47:15.588Z,101164.16
2018-08-28T18:49:44.771Z,101166.77
2018-08-28T18:52:14.148Z,101170.05
2018-08-28T18:54:43.383Z,101173.84
2018-08-28T18:57:12.768Z,101166.08
2018-08-28T18:59:42.112Z,101169.66
2018-08-28T19:02:11.326Z,101165.84
2018-08-28T19:04:40.459Z,101160.28
2018-08-28T19:07:09.774Z,101164.64
2018-08-28T19:09:39.083Z,101165.58
2018-08-28T19:12:08.315Z,101165.34
2018-08-28T19:14:37.485Z,101169.94
2018-08-28T19:17:06.634Z,101166.86
2018-08-28T19:19:35.776Z,101162.62
2018-08-28T19:22:04.979Z,101165.69
2018-08-28T19:24:34.184Z,101162.19
2018-08-28T19:27:03.395Z,101167.62
2018-08-28T19:29:32.603Z,101169.22
2018-08-28T19:32:01.823Z,101166.33
2018-08-28T19:34:30.959Z,101158.47
2018-08-28T19:37:00.266Z,101154.94
2018-08-28T19:39:29.996Z,101162.66
2018-08-28T19:41:59.180Z,101163.38
2018-08-28T19:44:28.416Z,101160.95
2018-08-28T19:46:57.605Z,101157.67
2018-08-28T19:49:26.839Z,101159.70
2018-08-28T19:51:56.057Z,101153.62
2018-08-28T19:54:25.203Z,101156.64
2018-08-28T19:56:54.373Z,101151.08
2018-08-28T19:59:23.615Z,101149.23
2018-08-28T20:01:52.746Z,101150.35
2018-08-28T20:04:22.313Z,101145.66
2018-08-28T20:06:51.495Z,101143.53
2018-08-28T20:09:20.703Z,101150.44
2018-08-28T20:11:50.072Z,101145.78
2018-08-28T20:14:19.535Z,101146.84
2018-08-28T20:16:48.656Z,101147.98
2018-08-28T20:19:17.811Z,101142.31
2018-08-28T20:21:47.004Z,101145.91
2018-08-28T20:24:16.187Z,101138.17
2018-08-28T20:26:45.380Z,101141.67
2018-08-28T20:29:14.478Z,101134.20
2018-08-28T20:31:43.708Z,101135.52
2018-08-28T20:34:12.910Z,101132.70
2018-08-28T20:36:42.014Z,101132.86
2018-08-28T20:39:11.163Z,101132.59
2018-08-28T20:41:40.999Z,101134.50
2018-08-28T20:44:10.194Z,101128.92
2018-08-28T20:46:39.327Z,101123.09
2018-08-28T20:49:08.522Z,101114.01
2018-08-28T20:51:38.382Z,101116.20
2018-08-28T20:54:07.640Z,101120.63
2018-08-28T20:56:36.819Z,101116.56
2018-08-28T20:59:06.541Z,101107.81
2018-08-28T21:01:35.743Z,101105.75
2018-08-28T21:04:04.927Z,101102.81
2018-08-28T21:06:34.211Z,101094.97
2018-08-28T21:09:04.207Z,101095.18
2018-08-28T21:11:33.340Z,101093.73
2018-08-28T21:14:02.566Z,101093.56
2018-08-28T21:16:31.679Z,101089.60
2018-08-28T21:19:00.934Z,101090.35
2018-08-28T21:21:30.197Z,101086.22
2018-08-28T21:23:59.441Z,101088.36
2018-08-28T21:26:28.571Z,101085.07
2018-08-28T21:28:57.766Z,101078.93
2018-08-28T21:31:26.915Z,101076.30
2018-08-28T21:33:56.123Z,101073.87
2018-08-28T21:36:25.351Z,101074.39
2018-08-28T21:38:54.562Z,101070.13
2018-08-28T21:41:23.708Z,101075.58
2018-08-28T21:43:52.853Z,101070.55
2018-08-28T21:46:21.985Z,101070.76
2018-08-28T21:48:51.078Z,101070.57
2018-08-28T21:51:20.358Z,101067.33
2018-08-28T21:53:49.442Z,101071.26
2018-08-28T21:56:18.600Z,101065.98
2018-08-28T21:58:47.738Z,101067.13
2018-08-28T22:01:16.884Z,101068.03
2018-08-28T22:03:46.107Z,101068.41
2018-08-28T22:06:20.562Z,101068.79
2018-08-28T22:08:49.686Z,101065.66
2018-08-28T22:11:18.913Z,101066.09
2018-08-28T22:13:48.050Z,101067.42
2018-08-28T22:16:17.211Z,101064.06
2018-08-28T22:18:46.354Z,101067.52
2018-08-28T22:21:16.314Z,101062.80
2018-08-28T22:23:45.563Z,101065.83
2018-08-28T22:26:14.688Z,101066.69
2018-08-28T22:28:43.843Z,101071.40
2018-08-28T22:31:13.008Z,101065.83
2018-08-28T22:33:42.162Z,101065.37
2018-08-28T22:36:11.339Z,101063.39
2018-08-28T22:38:40.539Z,101056.96
2018-08-28T22:41:09.714Z,101057.78
2018-08-28T22:43:38.919Z,101063.16
2018-08-28T22:46:08.110Z,101055.51
2018-08-28T22:48:37.540Z,101058.23
2018-08-28T22:51:06.829Z,101059.36
2018-08-28T22:53:35.995Z,101052.51
2018-08-28T22:56:05.295Z,101052.20
2018-08-28T22:58:34.536Z,101051.39
2018-08-28T23:01:03.777Z,101060.11
2018-08-28T23:03:33.031Z,101054.20
2018-08-28T23:06:02.173Z,101056.38
2018-08-28T23:08:31.331Z,101053.34
2018-08-28T23:11:00.462Z,101051.36
2018-08-28T23:13:29.636Z,101047.11
2018-08-28T23:15:58.804Z,101047.82
2018-08-28T23:18:28.027Z,101043.11
2018-08-28T23:20:57.227Z,101036.68
2018-08-28T23:23:26.417Z,101039.11
2018-08-28T23:25:55.617Z,101041.08
2018-08-28T23:28:24.814Z,101034.55
2018-08-28T23:30:53.967Z,101040.37
2018-08-28T23:33:23.087Z,101032.27
2018-08-28T23:35:52.338Z,101030.48
2018-08-28T23:38:21.518Z,101022.41
2018-08-28T23:40:50.631Z,101022.41
2018-08-28T23:43:19.752Z,101022.84
2018-08-28T23:45:48.891Z,101026.40
2018-08-28T23:48:18.993Z,101022.09
2018-08-28T23:50:48.172Z,101023.95
2018-08-28T23:53:17.412Z,101023.41
2018-08-28T23:55:46.557Z,101025.06
2018-08-28T23:58:15.760Z,101016.64
